EKHM weather

Hammer Glider Field
Central Jutland, Denmark

Public forecast

Using degrees Celsius for public forecast. Weather courtesy of forecast.io.

Closest aviation weather report (METAR) to Hammer Glider Field

Closest report is Billund Airport, 14.2 nm (26.2 km) SW. Retrieved 2019/10/21 14:20 UTC (0 seconds ago):

EKBI 211420Z AUTO 03007KT 6000 -SHRA BKN006/// BKN025/// 10/10 Q1018

Closest aviation forecast (TAF) to Hammer Glider Field

Closest forecast is Billund Airport, 14.2 nm (26.2 km) SW. Retrieved 2019/10/21 12:31 UTC (2 hours ago):

TAF EKBI 211114Z 2112/2212 07008KT 7000 -RADZ SCT008 BKN015 TEMPO 2112/2117 4000 BR BKN008 BECMG 2117/2119 20005KT 0100 FG VV001 TEMPO 2122/2209 1500 BR BKN003 BECMG 2209/2211 8000 NSW SCT010 BKN015